Time;durP1;ratioP1;P1;durP2;ratioP2;P2;SDS_P1;SDS_P2;PMS_P1;PMS_P2;Temp;Humidity;BMP_temperature;BMP_pressure;BME280_temperature;BME280_humidity;BME280_pressure;Samples;Min_cycle;Max_cycle;Signal;HPM_P1;HPM_P2
2021/03/02 00:01:18;;;;;;;52.73;37.87;;;;;;;3.80;77.93;102168.09;123142;1105;104671;-84
2021/03/02 00:03:44;;;;;;;51.17;36.73;;;;;;;3.79;77.86;102174.20;122684;1105;104245;-85
2021/03/02 00:06:10;;;;;;;58.30;38.83;;;;;;;3.76;78.04;102178.47;122528;1105;104596;-85
2021/03/02 00:08:37;;;;;;;50.47;34.87;;;;;;;3.74;77.90;102181.06;122711;1105;104384;-84
2021/03/02 00:11:04;;;;;;;54.63;35.07;;;;;;;3.71;77.59;102173.08;122729;1105;104335;-83
2021/03/02 00:13:31;;;;;;;56.57;38.20;;;;;;;3.66;77.71;102183.45;123332;1105;104689;-84
2021/03/02 00:16:00;;;;;;;45.90;35.80;;;;;;;3.64;78.39;102185.17;123300;1106;104271;-85
2021/03/02 00:18:28;;;;;;;65.37;35.77;;;;;;;3.62;78.37;102183.33;123366;1105;104290;-83
2021/03/02 00:21:00;;;;;;;54.00;36.80;;;;;;;3.62;78.70;102185.97;123532;1105;104140;-85
2021/03/02 00:23:29;;;;;;;55.48;38.40;;;;;;;3.67;78.00;102177.34;123652;1105;104335;-82
2021/03/02 00:25:56;;;;;;;53.43;37.57;;;;;;;3.70;78.36;102176.55;123338;1106;104392;-86
2021/03/02 00:28:25;;;;;;;56.80;36.42;;;;;;;3.66;77.64;102179.94;123329;1106;105217;-86
2021/03/02 00:30:52;;;;;;;52.90;34.50;;;;;;;3.67;78.11;102181.73;123438;1105;104370;-84
2021/03/02 00:33:18;;;;;;;53.38;36.98;;;;;;;3.72;78.13;102184.50;123405;1105;104322;-84
2021/03/02 00:35:44;;;;;;;51.48;35.63;;;;;;;3.78;77.36;102190.85;123128;1105;104303;-84
2021/03/02 00:38:10;;;;;;;45.80;32.80;;;;;;;3.77;77.85;102183.81;123168;1105;104322;-81
2021/03/02 00:40:35;;;;;;;49.77;32.70;;;;;;;3.70;77.47;102176.55;123343;1105;104672;-85
2021/03/02 00:43:01;;;;;;;45.95;32.63;;;;;;;3.70;78.13;102176.55;123457;1105;104445;-84
2021/03/02 00:45:27;;;;;;;49.15;33.50;;;;;;;3.68;77.58;102165.09;123421;1105;104957;-82
2021/03/02 00:47:53;;;;;;;49.80;33.83;;;;;;;3.63;77.48;102162.30;123374;1105;104173;-84
2021/03/02 00:50:21;;;;;;;40.65;30.05;;;;;;;3.54;78.24;102159.37;123514;1105;104294;-84
2021/03/02 00:52:47;;;;;;;40.77;32.47;;;;;;;3.57;78.04;102145.41;123382;1105;104909;-83
2021/03/02 00:55:13;;;;;;;48.85;33.65;;;;;;;3.59;77.81;102130.55;123327;1106;104306;-83
2021/03/02 00:57:38;;;;;;;51.70;33.90;;;;;;;3.59;77.64;102130.55;123472;1105;104357;-82
2021/03/02 01:00:06;;;;;;;44.80;31.73;;;;;;;3.51;77.66;102132.95;123396;1105;105716;-83
2021/03/02 01:02:32;;;;;;;41.60;29.13;;;;;;;3.50;77.79;102126.77;123358;1104;104270;-84
2021/03/02 01:04:58;;;;;;;40.60;29.45;;;;;;;3.53;77.39;102111.92;123463;1105;104399;-84
2021/03/02 01:07:23;;;;;;;41.42;28.98;;;;;;;3.57;77.60;102117.31;123462;1105;104252;-83
2021/03/02 01:09:49;;;;;;;40.97;30.63;;;;;;;3.54;77.76;102117.23;123442;1105;104396;-84
2021/03/02 01:12:15;;;;;;;40.57;27.43;;;;;;;3.49;78.38;102124.09;123360;1106;104277;-87
2021/03/02 01:14:41;;;;;;;38.45;27.30;;;;;;;3.47;78.17;102110.00;123483;1105;104341;-83
2021/03/02 01:17:07;;;;;;;45.75;28.80;;;;;;;3.48;78.33;102117.06;123359;1105;104217;-82
2021/03/02 01:19:32;;;;;;;38.10;29.47;;;;;;;3.51;77.77;102120.66;123342;1105;104836;-83
2021/03/02 01:21:58;;;;;;;40.50;30.70;;;;;;;3.53;77.91;102117.19;123511;1105;104261;-82
2021/03/02 01:24:24;;;;;;;37.55;24.65;;;;;;;3.49;78.45;102118.83;123395;1105;104392;-83
2021/03/02 01:26:50;;;;;;;39.58;26.77;;;;;;;3.50;78.00;102116.23;123479;1105;104248;-85
2021/03/02 01:29:16;;;;;;;38.00;27.53;;;;;;;3.55;78.08;102104.97;123444;1105;104232;-82
2021/03/02 01:31:41;;;;;;;43.50;28.55;;;;;;;3.51;78.04;102102.22;123345;1105;104246;-84
2021/03/02 01:34:07;;;;;;;42.33;30.72;;;;;;;3.49;78.21;102108.28;123550;1105;104976;-83
2021/03/02 01:36:33;;;;;;;37.33;27.43;;;;;;;3.50;79.00;102113.59;123354;1105;104284;-87
2021/03/02 01:38:58;;;;;;;44.90;28.07;;;;;;;3.57;78.20;102116.43;123341;1105;104698;-86
2021/03/02 01:41:24;;;;;;;41.45;30.65;;;;;;;3.64;78.61;102099.98;123211;1105;104383;-83
2021/03/02 01:43:50;;;;;;;47.67;28.65;;;;;;;3.61;77.94;102105.13;122837;1105;104999;-84
2021/03/02 01:46:16;;;;;;;42.17;28.02;;;;;;;3.58;78.11;102105.94;122715;1105;104490;-82
2021/03/02 01:48:42;;;;;;;40.07;29.40;;;;;;;3.58;78.67;102095.39;122623;1105;104303;-82
2021/03/02 01:51:09;;;;;;;38.87;28.23;;;;;;;3.61;78.98;102097.23;122813;1105;104232;-83
2021/03/02 01:53:35;;;;;;;39.30;28.97;;;;;;;3.57;78.44;102087.45;123274;1105;104879;-83
2021/03/02 01:56:01;;;;;;;43.07;28.70;;;;;;;3.54;78.89;102082.10;123477;1105;104277;-83
2021/03/02 01:58:28;;;;;;;47.53;30.40;;;;;;;3.54;78.80;102082.10;123531;1105;104219;-87
2021/03/02 02:00:55;;;;;;;43.85;31.00;;;;;;;3.58;78.59;102068.17;123402;1105;104310;-82
2021/03/02 02:03:39;;;;;;;42.85;29.42;;;;;;;3.60;79.16;102067.37;123388;1105;104415;-82
2021/03/02 02:06:44;;;;;;;44.42;30.57;;;;;;;3.57;79.45;102072.53;123273;1105;104303;-83
2021/03/02 02:09:24;;;;;;;46.57;31.77;;;;;;;3.58;79.29;102068.17;123302;1105;104325;-87
2021/03/02 02:12:07;;;;;;;45.13;32.83;;;;;;;3.60;79.33;102076.99;123325;1105;104253;-83
2021/03/02 02:14:39;;;;;;;51.42;33.78;;;;;;;3.60;79.68;102072.64;123272;1105;104370;-84
2021/03/02 02:17:08;;;;;;;53.33;32.10;;;;;;;3.59;79.35;102064.70;123290;1105;104358;-84
2021/03/02 02:19:41;;;;;;;45.27;33.17;;;;;;;3.63;78.94;102062.18;123316;1105;104386;-84
2021/03/02 02:22:32;;;;;;;46.47;32.63;;;;;;;3.62;79.51;102052.48;123345;1105;104242;-82
2021/03/02 02:25:18;;;;;;;55.70;34.85;;;;;;;3.64;80.10;102050.80;122881;1106;104392;-82
2021/03/02 02:27:47;;;;;;;50.43;33.63;;;;;;;3.58;80.03;102050.61;123304;1105;104419;-83
2021/03/02 02:30:14;;;;;;;48.68;32.53;;;;;;;3.61;79.48;102055.98;123317;1106;104245;-83
2021/03/02 02:32:42;;;;;;;45.87;34.13;;;;;;;3.61;79.84;102047.17;123294;1105;104306;-83
2021/03/02 02:35:10;;;;;;;50.12;34.20;;;;;;;3.65;79.14;102038.50;123330;1105;104971;-83
2021/03/02 02:37:37;;;;;;;51.68;37.20;;;;;;;3.60;79.21;102035.75;123317;1105;104310;-82
2021/03/02 02:40:04;;;;;;;50.00;34.18;;;;;;;3.55;79.81;102034.73;123300;1105;104348;-84
2021/03/02 02:42:30;;;;;;;50.90;34.03;;;;;;;3.56;79.72;102038.23;123435;1105;104220;-84
2021/03/02 02:44:56;;;;;;;53.55;35.75;;;;;;;3.58;79.49;102041.83;123497;1105;104398;-88
2021/03/02 02:47:23;;;;;;;52.43;36.40;;;;;;;3.68;80.07;102041.25;123172;1105;104265;-84
2021/03/02 02:49:49;;;;;;;50.70;36.90;;;;;;;3.70;80.06;102041.29;123370;1105;104463;-85
2021/03/02 02:52:16;;;;;;;54.40;34.43;;;;;;;3.73;79.87;102041.37;123401;1105;104469;-83
2021/03/02 02:54:46;;;;;;;55.40;36.20;;;;;;;3.72;79.21;102045.76;123429;1105;104370;-82
2021/03/02 02:57:14;;;;;;;47.75;35.17;;;;;;;3.75;79.26;102047.59;123390;1105;104399;-83
2021/03/02 02:59:41;;;;;;;43.40;32.77;;;;;;;3.76;79.93;102049.34;123311;1105;104472;-83
2021/03/02 03:02:15;;;;;;;54.27;35.33;;;;;;;3.71;79.91;102038.70;123384;1105;104319;-83
2021/03/02 03:04:45;;;;;;;48.92;34.58;;;;;;;3.72;79.52;102050.11;123401;1105;104338;-84
2021/03/02 03:07:18;;;;;;;54.00;35.73;;;;;;;3.76;80.13;102047.63;123328;1105;104223;-83
2021/03/02 03:09:44;;;;;;;57.60;34.40;;;;;;;3.82;79.63;102049.53;123386;1105;104303;-84
2021/03/02 03:12:13;;;;;;;55.38;36.00;;;;;;;3.81;79.21;102059.20;123271;1105;104206;-83
2021/03/02 03:14:45;;;;;;;58.63;36.47;;;;;;;3.82;79.08;102058.32;123428;1105;104253;-83
2021/03/02 03:17:12;;;;;;;50.67;34.43;;;;;;;3.78;79.05;102058.20;123218;1105;104204;-82
2021/03/02 03:19:39;;;;;;;52.70;36.57;;;;;;;3.82;79.46;102057.44;123280;1105;104280;-83
2021/03/02 03:22:04;;;;;;;59.15;36.70;;;;;;;3.85;79.58;102061.06;123434;1105;104319;-84
2021/03/02 03:24:30;;;;;;;51.13;35.63;;;;;;;3.85;79.79;102060.15;123511;1105;104306;-82
2021/03/02 03:26:56;;;;;;;53.50;34.63;;;;;;;3.89;79.78;102063.77;123422;1105;104191;-90
2021/03/02 03:29:24;;;;;;;48.20;32.80;;;;;;;3.88;79.73;102065.53;123206;1105;105021;-82
2021/03/02 03:31:51;;;;;;;55.70;35.60;;;;;;;3.85;80.08;102063.70;123402;1105;104290;-83
2021/03/02 03:34:17;;;;;;;51.17;34.43;;;;;;;3.70;80.08;102047.44;123306;1105;104369;-83
2021/03/02 03:36:43;;;;;;;50.27;33.80;;;;;;;3.82;79.73;102067.98;123375;1105;104220;-84
2021/03/02 03:39:09;;;;;;;48.78;35.90;;;;;;;3.85;79.85;102060.15;123259;1105;104319;-84
2021/03/02 03:41:36;;;;;;;47.83;32.33;;;;;;;3.78;80.33;102042.39;123371;1105;104201;-84
2021/03/02 03:44:03;;;;;;;47.45;34.45;;;;;;;3.80;79.83;102052.13;123487;1105;104933;-83
2021/03/02 03:46:28;;;;;;;44.43;32.73;;;;;;;3.84;80.23;102058.39;123447;1105;104396;-87
2021/03/02 03:48:54;;;;;;;56.70;35.03;;;;;;;3.85;80.30;102060.15;123376;1105;104271;-86
2021/03/02 03:51:24;;;;;;;48.70;35.50;;;;;;;3.89;79.74;102066.41;123526;1105;104509;-84
2021/03/02 03:53:50;;;;;;;47.70;34.18;;;;;;;3.93;79.79;102057.73;123666;1105;104268;-83
2021/03/02 03:56:16;;;;;;;56.88;36.40;;;;;;;3.93;79.39;102066.55;123502;1105;104386;-83
2021/03/02 03:58:43;;;;;;;49.40;32.27;;;;;;;3.99;79.93;102060.55;123515;1105;104217;-84
2021/03/02 04:01:11;;;;;;;51.63;36.93;;;;;;;3.99;79.31;102056.16;123380;1105;104240;-82
2021/03/02 04:03:42;;;;;;;49.18;36.23;;;;;;;3.96;79.32;102042.03;123360;1105;104211;-83
2021/03/02 04:06:09;;;;;;;52.20;35.23;;;;;;;3.95;79.98;102040.23;123606;1105;104331;-83
2021/03/02 04:08:38;;;;;;;54.03;35.30;;;;;;;3.96;80.05;102036.75;123657;1105;104848;-82
2021/03/02 04:11:03;;;;;;;45.50;32.53;;;;;;;4.02;79.76;102039.54;123353;1105;104425;-83
2021/03/02 04:13:29;;;;;;;50.75;35.55;;;;;;;4.05;79.63;102044.00;123292;1105;104229;-83
2021/03/02 04:15:59;;;;;;;47.27;33.25;;;;;;;4.06;79.66;102035.25;123615;1105;104248;-83
2021/03/02 04:18:26;;;;;;;51.13;35.30;;;;;;;3.98;79.62;102029.77;123505;1105;104409;-82
2021/03/02 04:20:53;;;;;;;52.70;32.50;;;;;;;3.99;79.51;102028.92;123434;1105;104504;-82
2021/03/02 04:23:20;;;;;;;50.83;34.90;;;;;;;4.05;79.22;102026.42;123568;1105;104396;-84
2021/03/02 04:25:47;;;;;;;50.30;34.73;;;;;;;4.05;79.20;102026.42;123724;1105;104240;-87
2021/03/02 04:28:20;;;;;;;48.87;33.97;;;;;;;4.05;79.89;102017.64;123499;1106;104222;-83
2021/03/02 04:30:46;;;;;;;48.30;33.47;;;;;;;4.09;79.88;102020.41;123441;1105;104246;-82
2021/03/02 04:33:12;;;;;;;42.17;32.20;;;;;;;4.11;79.44;102015.18;123578;1106;104255;-82
2021/03/02 04:35:42;;;;;;;46.55;34.15;;;;;;;4.07;79.37;102019.47;123411;1105;104559;-82
2021/03/02 04:38:09;;;;;;;50.23;35.78;;;;;;;4.05;79.67;102015.88;123338;1105;104518;-83
2021/03/02 04:40:35;;;;;;;43.23;33.42;;;;;;;4.02;79.59;102015.81;123479;1105;105825;-82
2021/03/02 04:43:02;;;;;;;55.17;36.00;;;;;;;4.04;79.08;102014.13;123363;1106;105127;-83
2021/03/02 04:45:29;;;;;;;56.35;36.77;;;;;;;4.08;79.58;102002.80;123520;1105;104225;-83
2021/03/02 04:47:56;;;;;;;50.23;37.50;;;;;;;4.04;79.86;102000.03;123476;1105;104309;-82
2021/03/02 04:50:23;;;;;;;57.53;36.10;;;;;;;3.90;79.98;101982.11;123298;1105;104399;-81
2021/03/02 04:52:50;;;;;;;57.30;38.45;;;;;;;4.07;79.98;102002.77;123016;1105;104220;-83
2021/03/02 04:55:21;;;;;;;55.20;39.27;;;;;;;4.06;80.02;102003.61;123071;1105;104347;-82
2021/03/02 04:57:54;;;;;;;53.43;35.30;;;;;;;4.03;79.47;102006.18;122731;1105;104296;-83
2021/03/02 05:00:21;;;;;;;51.27;36.60;;;;;;;3.99;79.60;102013.98;122974;1105;104313;-82
2021/03/02 05:02:46;;;;;;;52.25;33.60;;;;;;;3.96;80.06;101992.83;123015;1105;104262;-82
2021/03/02 05:05:14;;;;;;;53.13;35.47;;;;;;;3.96;80.02;101994.58;123390;1106;104317;-82
2021/03/02 05:07:40;;;;;;;64.33;37.50;;;;;;;4.00;80.32;101991.17;123497;1106;104303;-82
2021/03/02 05:10:06;;;;;;;50.13;35.57;;;;;;;3.99;80.19;101992.89;123463;1106;104322;-82
2021/03/02 05:12:32;;;;;;;56.73;33.25;;;;;;;4.01;79.63;101992.93;123330;1106;104989;-84
2021/03/02 05:14:58;;;;;;;52.73;34.50;;;;;;;4.03;79.88;101991.23;123270;1105;105101;-85
2021/03/02 05:17:24;;;;;;;51.18;35.73;;;;;;;4.05;79.53;101997.43;123424;1106;104976;-83
2021/03/02 05:19:49;;;;;;;56.13;35.43;;;;;;;4.06;79.95;102000.98;123315;1105;104294;-82
2021/03/02 05:22:15;;;;;;;56.15;34.30;;;;;;;4.06;79.23;101993.95;123350;1105;104297;-82
2021/03/02 05:24:41;;;;;;;61.48;38.20;;;;;;;4.06;80.01;101980.77;123475;1105;104325;-83
2021/03/02 05:27:06;;;;;;;52.60;33.35;;;;;;;4.04;79.66;101979.85;123288;1105;104817;-81
2021/03/02 05:29:32;;;;;;;54.30;35.95;;;;;;;4.03;79.67;101982.45;123020;1105;104258;-82
2021/03/02 05:31:58;;;;;;;54.35;36.85;;;;;;;4.01;80.21;101987.66;122742;1105;104809;-86
2021/03/02 05:34:23;;;;;;;57.10;35.80;;;;;;;3.99;79.47;101986.75;122752;1105;104245;-84
2021/03/02 05:36:49;;;;;;;47.85;34.63;;;;;;;4.01;79.90;101987.66;122916;1105;104297;-83
2021/03/02 05:39:14;;;;;;;58.55;38.15;;;;;;;4.00;80.07;101989.41;122699;1105;104255;-83
2021/03/02 05:41:43;;;;;;;47.83;34.27;;;;;;;4.02;80.51;101986.81;122864;1105;104717;-82
2021/03/02 05:44:13;;;;;;;61.63;36.93;;;;;;;4.03;79.53;101978.06;122710;1105;104399;-89
2021/03/02 05:46:40;;;;;;;58.00;35.52;;;;;;;4.05;79.64;101988.64;122701;1105;104290;-83
2021/03/02 05:49:08;;;;;;;50.30;32.85;;;;;;;4.04;79.96;101987.77;122858;1105;104274;-82
2021/03/02 05:51:43;;;;;;;64.03;38.73;;;;;;;4.08;79.96;101986.98;122775;1105;104386;-82
2021/03/02 05:54:14;;;;;;;47.43;33.60;;;;;;;4.05;80.22;101978.97;123084;1104;104330;-83
2021/03/02 05:56:45;;;;;;;48.10;36.43;;;;;;;4.05;79.71;101983.37;123288;1106;104411;-82
2021/03/02 05:59:15;;;;;;;47.60;35.00;;;;;;;4.06;79.98;101983.41;123221;1105;104259;-84
2021/03/02 06:01:41;;;;;;;54.20;33.83;;;;;;;4.09;79.95;101977.32;123199;1105;104229;-82
2021/03/02 06:04:12;;;;;;;51.37;37.25;;;;;;;4.03;79.83;101982.45;123407;1105;104914;-83
2021/03/02 06:06:38;;;;;;;49.13;33.47;;;;;;;4.00;80.39;101980.62;123319;1105;104137;-82
2021/03/02 06:09:04;;;;;;;48.97;33.23;;;;;;;4.03;80.40;101979.82;123290;1106;104245;-83
2021/03/02 06:11:32;;;;;;;48.55;31.77;;;;;;;4.05;80.28;101989.52;123390;1105;104206;-83
2021/03/02 06:14:18;;;;;;;49.30;35.07;;;;;;;4.07;80.18;101974.65;123052;1105;104258;-83
2021/03/02 06:16:46;;;;;;;44.43;32.97;;;;;;;4.08;80.31;101989.63;122853;1105;104817;-83
2021/03/02 06:19:13;;;;;;;56.93;33.27;;;;;;;4.10;79.80;101987.02;122804;1105;104788;-83
2021/03/02 06:21:40;;;;;;;57.23;33.95;;;;;;;4.09;80.05;101980.87;122864;1105;104408;-82
2021/03/02 06:24:07;;;;;;;52.40;35.97;;;;;;;4.06;80.05;101983.41;123143;1105;104229;-82
2021/03/02 06:26:44;;;;;;;;;;;;;;;;;;;;;
2021/03/02 06:29:14;;;;;;;59.00;35.43;;;;;;;4.05;80.07;101996.55;123031;1106;104325;-82
2021/03/02 06:31:45;;;;;;;54.80;34.80;;;;;;;4.01;79.94;101995.56;123260;1105;104692;-81
2021/03/02 06:34:18;;;;;;;49.45;34.58;;;;;;;4.04;80.16;101994.75;123195;1105;104351;-82
2021/03/02 06:36:58;;;;;;;48.20;33.10;;;;;;;4.06;80.77;101987.80;123113;1105;104520;-82
2021/03/02 06:39:29;;;;;;;57.17;33.02;;;;;;;4.05;80.23;101981.61;123110;1105;104390;-83
2021/03/02 06:42:25;;;;;;;48.10;31.47;;;;;;;4.04;80.19;101982.48;123450;1105;104310;-84
2021/03/02 06:45:13;;;;;;;50.17;35.33;;;;;;;4.09;80.25;101985.23;123436;1105;104310;-83
2021/03/02 06:47:47;;;;;;;56.68;39.67;;;;;;;4.11;80.42;101981.78;123437;1104;104229;-82
2021/03/02 06:50:13;;;;;;;54.50;37.08;;;;;;;4.08;80.51;101968.53;123331;1105;104686;-84
2021/03/02 06:52:43;;;;;;;49.88;34.92;;;;;;;4.15;80.53;101975.73;123454;1105;104377;-83
2021/03/02 06:55:14;;;;;;;46.58;34.65;;;;;;;4.17;79.69;101962.58;123418;1105;104304;-85
2021/03/02 06:57:40;;;;;;;52.67;38.43;;;;;;;4.17;80.00;101963.49;123291;1105;104326;-83
2021/03/02 07:00:06;;;;;;;65.30;38.40;;;;;;;4.19;80.28;101966.16;123310;1105;104986;-87
2021/03/02 07:02:41;;;;;;;53.68;36.28;;;;;;;4.16;80.24;101953.80;123345;1105;104280;-83
2021/03/02 07:05:18;;;;;;;54.83;34.90;;;;;;;4.15;80.20;101957.27;123351;1105;104226;-84
2021/03/02 07:07:46;;;;;;;58.50;38.87;;;;;;;4.19;79.99;101945.95;123163;1105;104615;-83
2021/03/02 07:10:14;;;;;;;48.23;34.45;;;;;;;4.18;79.76;101944.19;123449;1106;104214;-83
2021/03/02 07:12:41;;;;;;;57.93;39.00;;;;;;;4.16;80.52;101947.64;123430;1105;104360;-84
2021/03/02 07:15:12;;;;;;;52.80;32.77;;;;;;;4.22;79.94;101945.13;123433;1106;104248;-84
2021/03/02 07:17:40;;;;;;;52.77;33.83;;;;;;;4.29;79.56;101954.09;123258;1105;104432;-83
2021/03/02 07:20:09;;;;;;;59.80;42.00;;;;;;;4.31;79.32;101947.12;123368;1105;105002;-86
2021/03/02 07:22:36;;;;;;;54.10;38.10;;;;;;;4.33;79.33;101951.58;123311;1105;104229;-87
2021/03/02 07:25:05;;;;;;;51.53;36.80;;;;;;;4.31;79.14;101947.12;123258;1105;105000;-82
2021/03/02 07:27:31;;;;;;;56.55;36.70;;;;;;;4.34;79.40;101947.19;123320;1105;104803;-84
2021/03/02 07:30:00;;;;;;;52.90;38.20;;;;;;;4.41;79.28;101951.77;123116;1105;104860;-84
2021/03/02 07:32:29;;;;;;;59.90;36.77;;;;;;;4.41;79.16;101950.86;123290;1105;104290;-82
2021/03/02 07:34:56;;;;;;;50.53;35.47;;;;;;;4.39;79.41;101955.23;123308;1105;104150;-82
2021/03/02 07:37:27;;;;;;;54.85;38.98;;;;;;;4.43;79.78;101954.45;123240;1105;104389;-81
2021/03/02 07:40:13;;;;;;;50.67;35.13;;;;;;;4.44;78.89;101962.39;123140;1105;104303;-83
2021/03/02 07:42:41;;;;;;;51.13;35.43;;;;;;;4.47;79.01;101962.45;123429;1105;104297;-84
2021/03/02 07:45:15;;;;;;;54.37;37.60;;;;;;;4.41;79.29;101964.96;123347;1105;104396;-82
2021/03/02 07:47:47;;;;;;;52.87;36.17;;;;;;;4.42;79.12;101982.55;123152;1105;104294;-82
2021/03/02 07:50:22;;;;;;;49.88;37.85;;;;;;;4.45;79.05;101982.64;123235;1105;104422;-83
2021/03/02 07:53:08;;;;;;;61.77;39.67;;;;;;;4.52;79.13;101988.96;123233;1105;104226;-83
2021/03/02 07:55:36;;;;;;;53.90;39.20;;;;;;;4.52;78.97;101987.20;123345;1105;104980;-83
2021/03/02 07:58:22;;;;;;;49.90;33.03;;;;;;;4.58;78.93;101978.53;123391;1105;104808;-83
2021/03/02 08:00:55;;;;;;;60.40;39.60;;;;;;;4.62;78.96;101975.11;123329;1105;104144;-82
2021/03/02 08:03:28;;;;;;;56.35;38.42;;;;;;;4.65;78.78;101974.30;123567;1105;104306;-84
2021/03/02 08:06:00;;;;;;;59.85;39.70;;;;;;;4.61;78.63;101960.16;123454;1105;104338;-84
2021/03/02 08:08:41;;;;;;;59.23;36.23;;;;;;;4.60;78.62;101970.66;123412;1104;104508;-84
2021/03/02 08:11:28;;;;;;;53.40;37.67;;;;;;;4.67;78.66;101960.28;123403;1105;104313;-83
2021/03/02 08:13:54;;;;;;;59.30;38.73;;;;;;;4.72;78.22;101964.77;123456;1105;105044;-81
2021/03/02 08:17:00;;;;;;;56.98;40.63;;;;;;;4.80;78.23;101968.51;123631;1105;104313;-83
2021/03/02 08:19:47;;;;;;;53.63;32.90;;;;;;;4.77;78.15;101979.88;123674;1105;104197;-83
2021/03/02 08:22:16;;;;;;;50.43;33.05;;;;;;;4.81;77.46;101984.38;123613;1105;104239;-83
2021/03/02 08:24:58;;;;;;;55.08;36.58;;;;;;;4.82;77.94;101975.57;123353;1105;104197;-82
2021/03/02 08:27:44;;;;;;;51.73;39.20;;;;;;;4.81;77.80;101973.81;123412;1105;104204;-85
2021/03/02 08:30:12;;;;;;;52.13;36.27;;;;;;;4.90;77.81;101977.52;123312;1105;104386;-88
2021/03/02 08:32:40;;;;;;;69.30;40.30;;;;;;;4.99;77.42;101970.67;123366;1105;104323;-87
2021/03/02 08:35:35;;;;;;;51.50;35.50;;;;;;;4.97;76.56;101967.13;123307;1105;104281;-83
2021/03/02 08:38:04;;;;;;;57.00;42.73;;;;;;;5.01;76.98;101955.77;123243;1105;104332;-83
2021/03/02 08:40:34;;;;;;;60.45;38.30;;;;;;;5.05;76.83;101964.63;123223;1105;104300;-85
2021/03/02 08:43:23;;;;;;;51.50;36.42;;;;;;;5.12;76.15;101966.56;123265;1105;104216;-84
2021/03/02 08:46:01;;;;;;;63.03;41.47;;;;;;;5.18;76.16;101982.55;123296;1105;104727;-86
2021/03/02 08:48:31;;;;;;;58.97;40.00;;;;;;;5.17;75.84;101988.69;123109;1105;104373;-84
2021/03/02 08:51:02;;;;;;;48.50;36.45;;;;;;;5.24;76.24;102009.93;123261;1105;104274;-83
2021/03/02 08:53:34;;;;;;;62.33;40.60;;;;;;;5.33;76.16;102002.20;123294;1105;104425;-85
2021/03/02 08:56:02;;;;;;;60.08;40.12;;;;;;;5.36;75.25;101992.60;123260;1106;104294;-83
2021/03/02 08:58:36;;;;;;;52.23;36.17;;;;;;;5.36;75.28;101992.60;123261;1105;104335;-85
2021/03/02 09:01:08;;;;;;;47.40;32.93;;;;;;;5.40;74.61;102001.49;123419;1105;104310;-85
2021/03/02 09:03:35;;;;;;;54.35;34.30;;;;;;;5.41;74.74;101990.07;123564;1105;104342;-84
2021/03/02 09:06:26;;;;;;;43.05;30.25;;;;;;;5.46;74.41;101995.44;123536;1105;104335;-84
2021/03/02 09:08:58;;;;;;;45.92;33.10;;;;;;;5.50;74.15;102002.56;123497;1105;104419;-86
2021/03/02 09:11:45;;;;;;;49.27;33.80;;;;;;;5.53;74.21;101997.33;123396;1105;104335;-83
2021/03/02 09:14:25;;;;;;;54.67;34.40;;;;;;;5.64;74.36;102002.86;123514;1105;104316;-83
2021/03/02 09:17:02;;;;;;;71.28;38.78;;;;;;;5.68;74.73;102010.87;123530;1105;104267;-84
2021/03/02 09:19:40;;;;;;;61.83;41.97;;;;;;;5.76;74.74;102011.02;123446;1105;104377;-83
2021/03/02 09:22:10;;;;;;;69.53;44.60;;;;;;;5.88;74.85;102010.38;123372;1105;104657;-83
2021/03/02 09:24:48;;;;;;;65.67;44.60;;;;;;;5.98;74.37;102011.45;123267;1105;104329;-84
2021/03/02 09:27:16;;;;;;;55.87;37.00;;;;;;;6.13;73.22;102003.81;123334;1105;104831;-82
2021/03/02 09:29:44;;;;;;;57.83;39.00;;;;;;;6.29;72.88;101997.05;123228;1105;104614;-86
2021/03/02 09:32:11;;;;;;;55.93;36.63;;;;;;;6.37;72.53;102007.73;123307;1105;104242;-82
2021/03/02 09:34:39;;;;;;;48.63;36.50;;;;;;;6.41;71.77;102011.33;123195;1105;104345;-86
2021/03/02 09:37:08;;;;;;;44.07;31.63;;;;;;;6.43;71.82;102012.27;123055;1105;104502;-82
2021/03/02 09:39:34;;;;;;;45.73;33.45;;;;;;;6.46;71.33;102013.18;122967;1105;104252;-83
2021/03/02 09:42:01;;;;;;;51.20;35.10;;;;;;;6.47;71.76;102007.03;122819;1105;104248;-85
2021/03/02 09:44:37;;;;;;;50.75;38.53;;;;;;;6.40;71.70;102018.39;122839;1105;104988;-85
2021/03/02 09:47:08;;;;;;;57.00;39.25;;;;;;;6.40;71.93;102015.74;122754;1105;104314;-86
2021/03/02 09:49:39;;;;;;;52.60;35.97;;;;;;;6.39;71.43;102027.19;122981;1105;104448;-82
2021/03/02 09:52:24;;;;;;;47.17;32.10;;;;;;;6.50;70.43;102022.98;123295;1105;104156;-83
2021/03/02 09:55:12;;;;;;;45.47;32.07;;;;;;;6.82;69.41;102022.61;123291;1105;104888;-83
2021/03/02 09:58:15;;;;;;;46.95;31.37;;;;;;;7.12;68.03;102018.62;123205;1105;104233;-85
2021/03/02 10:00:48;;;;;;;46.47;34.27;;;;;;;7.73;66.63;102017.63;123197;1105;104232;-83
2021/03/02 10:03:25;;;;;;;56.63;34.75;;;;;;;8.10;65.47;102017.13;123261;1105;104262;-84
2021/03/02 10:05:55;;;;;;;49.70;35.13;;;;;;;8.40;64.29;102015.63;123272;1106;104402;-83
2021/03/02 10:08:41;;;;;;;47.27;33.17;;;;;;;8.92;64.39;102017.86;123254;1105;104447;-84
2021/03/02 10:11:13;;;;;;;46.88;35.88;;;;;;;9.53;61.50;102012.85;123147;1105;104229;-82
2021/03/02 10:13:58;;;;;;;44.85;31.65;;;;;;;10.35;58.41;102004.19;123269;1106;104845;-83
2021/03/02 10:16:35;;;;;;;40.35;29.12;;;;;;;11.44;54.82;102003.11;123269;1105;104399;-84
2021/03/02 10:19:11;;;;;;;46.68;32.45;;;;;;;11.70;54.56;101986.08;123456;1105;104575;-83
2021/03/02 10:22:00;;;;;;;43.70;32.05;;;;;;;12.67;53.48;101997.88;123239;1106;104219;-84
2021/03/02 10:24:31;;;;;;;38.70;30.23;;;;;;;12.32;53.15;101991.06;123218;1105;104393;-82
2021/03/02 10:26:59;;;;;;;39.45;31.00;;;;;;;12.57;52.44;101985.48;123286;1105;104245;-89
2021/03/02 10:29:29;;;;;;;44.27;31.52;;;;;;;14.21;46.89;101969.19;123153;1105;104233;-82
2021/03/02 10:31:54;;;;;;;45.37;32.10;;;;;;;15.39;47.56;101961.66;123096;1105;104229;-83
2021/03/02 10:34:20;;;;;;;40.08;28.23;;;;;;;16.30;43.56;101961.38;123071;1105;104284;-84
2021/03/02 10:36:54;;;;;;;43.50;27.80;;;;;;;16.99;42.26;101970.37;123123;1105;104243;-84
2021/03/02 10:39:20;;;;;;;39.70;30.97;;;;;;;16.63;40.04;101967.69;123203;1105;104313;-86
2021/03/02 10:41:46;;;;;;;40.67;29.87;;;;;;;16.74;41.50;101972.81;123148;1104;104699;-82
2021/03/02 10:44:13;;;;;;;38.03;26.57;;;;;;;17.87;39.12;101965.05;123081;1105;104437;-82
2021/03/02 10:46:39;;;;;;;41.83;27.90;;;;;;;17.43;39.19;101969.98;122780;1105;104410;-87
2021/03/02 10:49:05;;;;;;;38.85;28.30;;;;;;;15.78;41.75;101963.49;122794;1105;104390;-82
2021/03/02 10:51:32;;;;;;;44.30;31.35;;;;;;;15.00;42.13;101961.58;122929;1105;104489;-82
2021/03/02 10:53:58;;;;;;;40.63;29.65;;;;;;;14.85;42.23;101958.27;122796;1105;104338;-86
2021/03/02 10:56:24;;;;;;;43.47;30.17;;;;;;;13.90;45.47;101968.77;122870;1105;104702;-85
2021/03/02 10:58:50;;;;;;;42.70;31.35;;;;;;;12.94;46.80;101958.39;123053;1105;104424;-85
2021/03/02 11:01:17;;;;;;;41.98;32.67;;;;;;;12.28;48.56;101955.46;122940;1105;104211;-83
2021/03/02 11:03:43;;;;;;;44.40;31.23;;;;;;;11.68;50.63;101946.06;123303;1104;104204;-85
2021/03/02 11:06:13;;;;;;;43.98;31.60;;;;;;;11.31;51.98;101940.04;123077;1106;104361;-86
2021/03/02 11:08:39;;;;;;;43.03;30.40;;;;;;;10.79;52.15;101946.44;122995;1105;104322;-83
2021/03/02 11:11:09;;;;;;;40.50;27.53;;;;;;;10.35;53.55;101945.61;123029;1105;104389;-82
2021/03/02 11:13:35;;;;;;;38.10;27.90;;;;;;;9.97;54.82;101946.44;122994;1105;104332;-82
2021/03/02 11:16:04;;;;;;;46.00;29.18;;;;;;;9.70;56.09;101934.86;123140;1104;104684;-82